Terminal Aerodrome Forecast
Issued by NWS Sioux Falls, SD

Home | Current Version | Previous Version | Graphics & Text | Print | Product List | Glossary Off
Versions: 1 2 3 4 5 6 7 8 9 10 11 12 13 14 15 16

000
FTUS43 KFSD 191447 AAA
TAFFSD
TAF AMD
KFSD 191447Z 1915/2012 19007KT P6SM OVC008
     FM191800 16008KT P6SM OVC015
     FM200100 16008KT P6SM BKN007 OVC015
     FM200700 16007KT P6SM OVC007=

USA.gov is the U.S. government's official web portal to all federal, state and local government web resources and services.